Terminal Aerodrome Forecast
Issued by NWS Wilmington, OH

Current Version | Previous Version | Graphics & Text | Print | Product List | Glossary On
Versions: 1 2 3 4 5 6 7 8 9 10 11 12 13 14 15 16 17 18 19 20 21 22 23 24 25 26 27
000
FTUS41 KILN 212320
TAFCVG
TAF
KCVG 212320Z 2200/2306 25006KT P6SM VCTS BKN040CB
      TEMPO 2200/2201 5SM -TSRA BKN035CB
     FM220200 VRB03KT P6SM SCT040 BKN200
     FM221400 23012KT P6SM BKN100
     FM222100 24010KT P6SM VCSH BKN050
     FM230200 24006KT P6SM FEW020 BKN040=

USA.gov is the U.S. government's official web portal to all federal, state and local government web resources and services.